Time;durP1;ratioP1;P1;durP2;ratioP2;P2;SDS_P1;SDS_P2;PMS_P1;PMS_P2;Temp;Humidity;BMP_temperature;BMP_pressure;BME280_temperature;BME280_humidity;BME280_pressure;Samples;Min_cycle;Max_cycle;Signal;HPM_P1;HPM_P2
2023/12/21 00:01:24;;;;;;;0.10;0.10;;;6.20;99.90;;;;;;5068218;28;20028;-77
2023/12/21 00:03:50;;;;;;;0.50;0.50;;;6.20;99.90;;;;;;5070637;28;20043;-74
2023/12/21 00:06:16;;;;;;;0.20;0.20;;;6.20;99.90;;;;;;5079172;28;20433;-74
2023/12/21 00:08:43;;;;;;;0.17;0.17;;;6.20;99.90;;;;;;5077507;28;20032;-74
2023/12/21 00:11:09;;;;;;;1.02;0.98;;;6.20;99.90;;;;;;5069704;28;20367;-73
2023/12/21 00:13:35;;;;;;;0.08;0.08;;;6.20;99.90;;;;;;5070848;28;20024;-74
2023/12/21 00:16:01;;;;;;;0.10;0.10;;;6.20;99.90;;;;;;5075196;28;20203;-73
2023/12/21 00:18:27;;;;;;;0.15;0.15;;;6.20;99.90;;;;;;5076706;28;20028;-74
2023/12/21 00:20:53;;;;;;;0.28;0.28;;;6.20;99.90;;;;;;5071783;28;20049;-74
2023/12/21 00:23:20;;;;;;;0.25;0.22;;;6.20;99.90;;;;;;5072088;28;20048;-75
2023/12/21 00:25:46;;;;;;;0.10;0.10;;;6.20;99.90;;;;;;5071697;28;20025;-74
2023/12/21 00:28:12;;;;;;;1.00;0.63;;;6.20;99.90;;;;;;5079128;28;20028;-74
2023/12/21 00:30:38;;;;;;;0.30;0.30;;;6.20;99.90;;;;;;5080966;28;20035;-74
2023/12/21 00:33:04;;;;;;;1.15;0.63;;;6.20;99.90;;;;;;5071064;28;20044;-74
2023/12/21 00:35:30;;;;;;;0.10;0.10;;;6.20;99.90;;;;;;5071497;28;20458;-75
2023/12/21 00:37:57;;;;;;;0.10;0.10;;;6.20;99.90;;;;;;5070259;28;20033;-74
2023/12/21 00:40:23;;;;;;;0.30;0.30;;;6.20;99.90;;;;;;5078684;28;20941;-74
2023/12/21 00:42:49;;;;;;;0.63;0.52;;;6.20;99.90;;;;;;5074636;28;20112;-74
2023/12/21 00:45:15;;;;;;;0.45;0.40;;;6.20;99.90;;;;;;5070492;28;20378;-73
2023/12/21 00:47:41;;;;;;;0.50;0.50;;;6.20;99.90;;;;;;5070844;28;20040;-74
2023/12/21 00:50:08;;;;;;;4.90;1.52;;;6.20;99.90;;;;;;5065991;28;20032;-74
2023/12/21 00:52:34;;;;;;;0.80;0.80;;;6.20;99.90;;;;;;5077889;28;20043;-74
2023/12/21 00:55:00;;;;;;;0.10;0.10;;;6.20;99.90;;;;;;5066451;28;20032;-72
2023/12/21 00:57:26;;;;;;;3.65;2.25;;;6.20;99.90;;;;;;5072284;28;20048;-73
2023/12/21 00:59:52;;;;;;;7.00;5.07;;;6.20;99.90;;;;;;5077506;28;20032;-72
2023/12/21 01:02:18;;;;;;;3.20;2.15;;;6.20;99.90;;;;;;5082831;28;20036;-73
2023/12/21 01:04:45;;;;;;;4.80;3.47;;;6.20;99.90;;;;;;5070188;28;20394;-72
2023/12/21 01:07:11;;;;;;;2.20;2.00;;;6.30;99.90;;;;;;5070112;28;20036;-72
2023/12/21 01:09:38;;;;;;;2.33;2.13;;;6.30;99.90;;;;;;5074827;28;20045;-73
2023/12/21 01:12:06;;;;;;;0.55;0.55;;;6.30;99.90;;;;;;5076005;28;20055;-72
2023/12/21 01:14:32;;;;;;;1.30;1.20;;;6.30;99.90;;;;;;5076271;28;20063;-72
2023/12/21 01:16:59;;;;;;;1.83;1.65;;;6.30;99.90;;;;;;5070182;28;20044;-71
2023/12/21 01:19:26;;;;;;;1.15;0.82;;;6.30;99.90;;;;;;5074781;28;20036;-72
2023/12/21 01:21:53;;;;;;;4.00;3.20;;;6.30;99.90;;;;;;5070621;28;20049;-71
2023/12/21 01:24:19;;;;;;;2.85;2.60;;;6.30;99.90;;;;;;5074639;28;20041;-72
2023/12/21 01:26:45;;;;;;;1.35;0.85;;;6.30;99.90;;;;;;5068340;28;20055;-71
2023/12/21 01:29:11;;;;;;;0.70;0.70;;;6.30;99.90;;;;;;5069454;28;20059;-71
2023/12/21 01:31:37;;;;;;;1.55;1.38;;;6.30;99.90;;;;;;5074117;28;20386;-71
2023/12/21 01:34:05;;;;;;;1.30;1.00;;;6.30;99.90;;;;;;5081261;28;20032;-73
2023/12/21 01:36:31;;;;;;;0.75;0.75;;;6.30;99.90;;;;;;5073401;28;20060;-75
2023/12/21 01:38:58;;;;;;;0.60;0.60;;;6.30;99.90;;;;;;5069485;28;20025;-72
2023/12/21 01:41:24;;;;;;;0.47;0.47;;;6.30;99.90;;;;;;5072697;28;20143;-73
2023/12/21 01:43:50;;;;;;;0.22;0.22;;;6.40;99.90;;;;;;5074210;28;20619;-74
2023/12/21 01:46:16;;;;;;;0.28;0.25;;;6.40;99.90;;;;;;5083470;28;20040;-73
2023/12/21 01:48:43;;;;;;;0.35;0.20;;;6.50;99.90;;;;;;5072145;28;20358;-73
2023/12/21 01:51:11;;;;;;;0.30;0.30;;;6.40;99.90;;;;;;5077432;28;20039;-73
2023/12/21 01:53:39;;;;;;;0.10;0.10;;;6.40;99.90;;;;;;5075308;28;20040;-73
2023/12/21 01:56:06;;;;;;;0.40;0.20;;;6.50;99.90;;;;;;5086413;28;20032;-73
2023/12/21 01:58:33;;;;;;;0.30;0.30;;;6.50;99.90;;;;;;5068582;28;20053;-75
2023/12/21 02:00:59;;;;;;;0.73;0.73;;;6.50;99.90;;;;;;5079872;28;20035;-73
2023/12/21 02:03:26;;;;;;;0.15;0.15;;;6.50;99.90;;;;;;5075815;28;20055;-72
2023/12/21 02:05:52;;;;;;;1.08;0.98;;;6.50;99.90;;;;;;5083378;28;20028;-73
2023/12/21 02:08:18;;;;;;;0.90;0.75;;;6.50;99.90;;;;;;5080116;28;20381;-73
2023/12/21 02:10:44;;;;;;;0.60;0.60;;;6.50;99.90;;;;;;5074208;28;20032;-72
2023/12/21 02:13:10;;;;;;;0.10;0.10;;;6.50;99.90;;;;;;5075881;28;20032;-72
2023/12/21 02:15:37;;;;;;;0.63;0.63;;;6.50;99.90;;;;;;5079213;28;20036;-73
2023/12/21 02:18:07;;;;;;;0.10;0.10;;;6.50;99.90;;;;;;5080741;28;20036;-73
2023/12/21 02:20:34;;;;;;;0.10;0.10;;;6.50;99.90;;;;;;5072804;28;20033;-74
2023/12/21 02:23:03;;;;;;;0.10;0.10;;;6.50;99.90;;;;;;5074113;28;20405;-72
2023/12/21 02:25:32;;;;;;;0.15;0.15;;;6.50;99.90;;;;;;5075857;28;20044;-73
2023/12/21 02:27:58;;;;;;;0.13;0.13;;;6.50;99.90;;;;;;5080979;28;20036;-71
2023/12/21 02:30:25;;;;;;;0.13;0.13;;;6.50;99.90;;;;;;5076262;28;20040;-72
2023/12/21 02:32:51;;;;;;;0.20;0.20;;;6.60;99.90;;;;;;5071914;28;20036;-73
2023/12/21 02:35:17;;;;;;;0.10;0.10;;;6.50;99.90;;;;;;5076115;28;20059;-72
2023/12/21 02:37:43;;;;;;;0.10;0.10;;;6.60;97.90;;;;;;5080354;28;20056;-73
2023/12/21 02:40:10;;;;;;;0.10;0.10;;;6.60;98.70;;;;;;5080734;28;20048;-72
2023/12/21 02:42:36;;;;;;;0.10;0.10;;;6.60;96.40;;;;;;5068518;28;20041;-73
2023/12/21 02:45:02;;;;;;;0.10;0.10;;;6.60;94.50;;;;;;5060648;28;20044;-72
2023/12/21 02:47:28;;;;;;;0.22;0.22;;;6.60;93.60;;;;;;5080337;28;20032;-73
2023/12/21 02:49:55;;;;;;;0.15;0.15;;;6.60;95.80;;;;;;5081329;28;20032;-72
2023/12/21 02:52:21;;;;;;;0.65;0.65;;;6.60;94.70;;;;;;5073086;28;20068;-73
2023/12/21 02:54:47;;;;;;;0.15;0.15;;;6.60;96.50;;;;;;5072050;28;20051;-73
2023/12/21 02:57:13;;;;;;;0.10;0.10;;;6.60;96.40;;;;;;5074105;28;20095;-72
2023/12/21 02:59:43;;;;;;;0.20;0.20;;;6.60;96.70;;;;;;5061380;28;20409;-73
2023/12/21 03:02:09;;;;;;;0.20;0.20;;;6.60;97.30;;;;;;5076510;28;20055;-73
2023/12/21 03:04:36;;;;;;;0.30;0.30;;;6.60;98.70;;;;;;5072307;28;20028;-73
2023/12/21 03:07:02;;;;;;;0.45;0.45;;;6.60;99.90;;;;;;5072148;28;20381;-72
2023/12/21 03:09:29;;;;;;;0.15;0.15;;;6.60;99.90;;;;;;5083321;28;20040;-73
2023/12/21 03:11:55;;;;;;;0.20;0.20;;;6.60;99.90;;;;;;5082567;28;20599;-73
2023/12/21 03:14:24;;;;;;;0.10;0.10;;;6.60;99.90;;;;;;5070448;28;20029;-72
2023/12/21 03:16:50;;;;;;;0.10;0.10;;;6.60;99.90;;;;;;5070848;28;20500;-72
2023/12/21 03:19:16;;;;;;;13.82;0.73;;;6.60;99.90;;;;;;5071829;28;20041;-73
2023/12/21 03:21:42;;;;;;;0.10;0.10;;;6.60;99.90;;;;;;5061667;28;20060;-72
2023/12/21 03:24:09;;;;;;;0.45;0.45;;;6.60;99.90;;;;;;5073111;28;20043;-73
2023/12/21 03:26:35;;;;;;;0.32;0.32;;;6.60;99.90;;;;;;5070593;28;20041;-75
2023/12/21 03:29:01;;;;;;;0.10;0.10;;;6.60;99.90;;;;;;5076322;28;20036;-73
2023/12/21 03:31:27;;;;;;;0.13;0.13;;;6.60;99.90;;;;;;5076661;28;20039;-72
2023/12/21 03:33:53;;;;;;;0.10;0.10;;;6.60;99.90;;;;;;5079267;28;20055;-73
2023/12/21 03:36:20;;;;;;;0.20;0.20;;;6.60;99.90;;;;;;5071938;28;20455;-73
2023/12/21 03:38:46;;;;;;;0.17;0.17;;;6.60;99.90;;;;;;5063219;28;20037;-72
2023/12/21 03:41:12;;;;;;;0.20;0.20;;;6.60;99.90;;;;;;5080044;28;20039;-73
2023/12/21 03:43:38;;;;;;;0.10;0.10;;;6.50;99.90;;;;;;5080090;28;20032;-72
2023/12/21 03:46:09;;;;;;;0.13;0.13;;;6.50;99.90;;;;;;5072405;28;20024;-73
2023/12/21 03:48:35;;;;;;;0.20;0.20;;;6.60;99.90;;;;;;5070613;28;20438;-76
2023/12/21 03:51:01;;;;;;;0.13;0.13;;;6.60;99.90;;;;;;5074555;28;20449;-73
2023/12/21 03:53:27;;;;;;;0.10;0.10;;;6.60;99.90;;;;;;5083710;28;20036;-73
2023/12/21 03:55:54;;;;;;;1.30;1.05;;;6.60;99.90;;;;;;5072886;28;20040;-72
2023/12/21 03:58:20;;;;;;;0.10;0.10;;;6.50;99.90;;;;;;5071301;28;20470;-72
2023/12/21 04:00:46;;;;;;;0.15;0.15;;;6.60;99.90;;;;;;5071368;28;20024;-73
2023/12/21 04:03:12;;;;;;;0.13;0.13;;;6.50;99.90;;;;;;5077971;28;20036;-73
2023/12/21 04:05:38;;;;;;;0.10;0.10;;;6.60;99.90;;;;;;5073639;28;20039;-74
2023/12/21 04:08:06;;;;;;;2.67;0.45;;;6.60;99.90;;;;;;5069710;28;20056;-73
2023/12/21 04:10:32;;;;;;;0.30;0.30;;;6.50;99.90;;;;;;5073046;28;20425;-73
2023/12/21 04:12:58;;;;;;;0.25;0.25;;;6.60;99.90;;;;;;5072029;28;20624;-73
2023/12/21 04:15:24;;;;;;;0.30;0.30;;;6.50;99.90;;;;;;5066430;28;20040;-73
2023/12/21 04:17:50;;;;;;;0.30;0.30;;;6.60;99.90;;;;;;5070662;28;20040;-72
2023/12/21 04:20:16;;;;;;;0.25;0.25;;;6.50;99.90;;;;;;5073379;28;20028;-72
2023/12/21 04:22:43;;;;;;;0.20;0.20;;;6.50;99.90;;;;;;5054475;28;20052;-73
2023/12/21 04:25:09;;;;;;;0.10;0.10;;;6.60;99.90;;;;;;5075459;28;20107;-73
2023/12/21 04:27:35;;;;;;;0.10;0.10;;;6.60;99.90;;;;;;5075589;28;20036;-72
2023/12/21 04:30:02;;;;;;;0.50;0.50;;;6.60;99.90;;;;;;5069273;28;20029;-73
2023/12/21 04:32:28;;;;;;;0.75;0.60;;;6.60;99.90;;;;;;5074933;28;20036;-73
2023/12/21 04:34:54;;;;;;;0.10;0.10;;;6.60;99.90;;;;;;5079617;28;20028;-73
2023/12/21 04:37:22;;;;;;;0.20;0.20;;;6.70;99.90;;;;;;5082461;28;20028;-72
2023/12/21 04:39:48;;;;;;;0.10;0.10;;;6.70;99.90;;;;;;5069238;28;20025;-73
2023/12/21 04:42:14;;;;;;;0.20;0.20;;;6.70;99.90;;;;;;5071867;28;20032;-73
2023/12/21 04:44:40;;;;;;;0.10;0.10;;;6.70;99.90;;;;;;5069505;28;20478;-75
2023/12/21 04:47:10;;;;;;;2.17;1.30;;;6.70;99.90;;;;;;5073858;28;20020;-73
2023/12/21 04:49:36;;;;;;;0.10;0.10;;;6.70;99.90;;;;;;5074963;28;20056;-73
2023/12/21 04:52:03;;;;;;;0.15;0.15;;;6.80;99.90;;;;;;5071341;28;20041;-73
2023/12/21 04:54:30;;;;;;;0.10;0.10;;;6.80;99.90;;;;;;5072857;28;20366;-73
2023/12/21 04:56:56;;;;;;;0.13;0.13;;;6.80;99.90;;;;;;5072325;28;20048;-73
2023/12/21 04:59:22;;;;;;;0.20;0.17;;;6.80;99.90;;;;;;5077123;28;20037;-73
2023/12/21 05:01:50;;;;;;;0.40;0.40;;;6.80;99.90;;;;;;5070231;28;20028;-73
2023/12/21 05:04:16;;;;;;;0.20;0.20;;;6.90;99.90;;;;;;5073693;28;20048;-73
2023/12/21 05:06:42;;;;;;;0.10;0.10;;;6.90;99.90;;;;;;5074371;28;20031;-75
2023/12/21 05:09:08;;;;;;;0.10;0.10;;;6.90;99.90;;;;;;5080461;28;20027;-72
2023/12/21 05:11:34;;;;;;;0.55;0.47;;;6.90;99.90;;;;;;5073179;28;20028;-72
2023/12/21 05:14:00;;;;;;;0.10;0.10;;;6.90;99.90;;;;;;5070208;28;20032;-72
2023/12/21 05:16:27;;;;;;;0.10;0.10;;;6.90;99.90;;;;;;5073450;28;20493;-73
2023/12/21 05:18:53;;;;;;;0.20;0.20;;;6.90;99.90;;;;;;5073655;28;20032;-73
2023/12/21 05:21:19;;;;;;;0.10;0.10;;;6.90;99.90;;;;;;5096846;28;20048;-73
2023/12/21 05:23:45;;;;;;;0.10;0.10;;;6.90;99.90;;;;;;5075225;28;20051;-73
2023/12/21 05:26:13;;;;;;;0.40;0.25;;;6.90;99.90;;;;;;5074684;28;20036;-72
2023/12/21 05:28:42;;;;;;;0.10;0.10;;;6.90;99.90;;;;;;5075794;28;20454;-75
2023/12/21 05:31:09;;;;;;;0.10;0.10;;;6.90;99.90;;;;;;5083369;28;20032;-73
2023/12/21 05:33:35;;;;;;;0.10;0.10;;;7.00;99.90;;;;;;5074672;28;20032;-73
2023/12/21 05:36:04;;;;;;;0.30;0.30;;;7.00;99.90;;;;;;5077345;28;20216;-73
2023/12/21 05:38:31;;;;;;;0.10;0.10;;;7.00;99.90;;;;;;5074547;28;20032;-73
2023/12/21 05:40:57;;;;;;;0.10;0.10;;;7.00;99.90;;;;;;5083973;28;20381;-73
2023/12/21 05:43:23;;;;;;;0.30;0.30;;;7.00;99.90;;;;;;5080095;28;20058;-73
2023/12/21 05:45:49;;;;;;;0.30;0.30;;;7.10;99.90;;;;;;5074342;28;20044;-73
2023/12/21 05:48:15;;;;;;;0.00;0.00;;;7.00;99.90;;;;;;5074144;28;20024;-73
2023/12/21 05:50:41;;;;;;;0.10;0.10;;;7.00;99.90;;;;;;5079936;28;20055;-73
2023/12/21 05:53:07;;;;;;;0.10;0.10;;;7.10;99.90;;;;;;5082885;28;20039;-73
2023/12/21 05:55:33;;;;;;;0.17;0.17;;;7.20;99.90;;;;;;5074401;28;20147;-73
2023/12/21 05:58:00;;;;;;;0.10;0.10;;;7.20;99.90;;;;;;5070949;28;20445;-73
2023/12/21 06:00:26;;;;;;;0.10;0.10;;;7.20;99.90;;;;;;5078710;28;20385;-73
2023/12/21 06:02:52;;;;;;;0.20;0.20;;;7.10;99.90;;;;;;5082197;28;20400;-73
2023/12/21 06:05:18;;;;;;;0.10;0.10;;;7.20;99.90;;;;;;5074032;28;20044;-73
2023/12/21 06:07:44;;;;;;;0.10;0.10;;;7.20;99.90;;;;;;5071276;28;20043;-73
2023/12/21 06:10:10;;;;;;;0.10;0.10;;;7.20;99.90;;;;;;5074261;28;20039;-73
2023/12/21 06:12:36;;;;;;;0.10;0.10;;;7.20;99.90;;;;;;5085068;28;20032;-73
2023/12/21 06:15:04;;;;;;;0.10;0.10;;;7.20;99.90;;;;;;5080251;28;20043;-73
2023/12/21 06:17:30;;;;;;;0.10;0.10;;;7.20;99.90;;;;;;5072926;28;20032;-74
2023/12/21 06:19:56;;;;;;;0.10;0.10;;;7.20;99.90;;;;;;5075944;28;20027;-73
2023/12/21 06:22:23;;;;;;;0.10;0.10;;;7.20;99.90;;;;;;5083152;28;20056;-73
2023/12/21 06:24:49;;;;;;;0.10;0.10;;;7.30;99.90;;;;;;5081848;28;20393;-74
2023/12/21 06:27:16;;;;;;;0.03;0.03;;;7.30;99.90;;;;;;5070064;28;20032;-73
2023/12/21 06:29:42;;;;;;;0.10;0.10;;;7.30;99.90;;;;;;5070996;28;20036;-75
2023/12/21 06:32:09;;;;;;;0.00;0.00;;;7.40;99.90;;;;;;5078585;28;20454;-73
2023/12/21 06:34:35;;;;;;;0.10;0.10;;;7.40;99.90;;;;;;5079418;28;20035;-72
2023/12/21 06:37:03;;;;;;;0.10;0.10;;;7.40;99.90;;;;;;5075186;28;20029;-73
2023/12/21 06:39:31;;;;;;;0.30;0.30;;;7.40;99.90;;;;;;5073283;28;20453;-73
2023/12/21 06:41:57;;;;;;;0.10;0.10;;;7.40;99.90;;;;;;5074560;28;20033;-73
2023/12/21 06:44:23;;;;;;;3.75;0.80;;;7.40;99.90;;;;;;5056365;28;20474;-73
2023/12/21 06:46:50;;;;;;;0.20;0.20;;;7.40;99.90;;;;;;5078944;28;20063;-73
2023/12/21 06:49:17;;;;;;;0.20;0.20;;;7.40;99.90;;;;;;5070673;28;20037;-73
2023/12/21 06:51:44;;;;;;;0.20;0.20;;;7.40;99.90;;;;;;5074049;28;20484;-75
2023/12/21 06:54:11;;;;;;;0.10;0.10;;;7.50;99.90;;;;;;5081201;28;20033;-73
2023/12/21 06:56:40;;;;;;;0.10;0.10;;;7.40;99.90;;;;;;5081621;28;20117;-74
2023/12/21 06:59:06;;;;;;;1.02;0.90;;;7.50;99.90;;;;;;5073165;28;20036;-74
2023/12/21 07:01:33;;;;;;;0.10;0.10;;;7.40;99.90;;;;;;5073754;28;20056;-75
2023/12/21 07:03:59;;;;;;;0.10;0.10;;;7.40;99.90;;;;;;5076257;28;20146;-73
2023/12/21 07:06:25;;;;;;;0.15;0.15;;;7.50;99.90;;;;;;5076441;28;20029;-73
2023/12/21 07:08:52;;;;;;;0.13;0.13;;;7.40;99.90;;;;;;5074710;28;20390;-73
2023/12/21 07:11:18;;;;;;;0.10;0.10;;;7.40;99.90;;;;;;5072607;28;20039;-72
2023/12/21 07:13:45;;;;;;;0.30;0.30;;;7.40;99.90;;;;;;5075469;28;20028;-74
2023/12/21 07:16:12;;;;;;;0.43;0.43;;;7.40;99.90;;;;;;5078863;28;20040;-73
2023/12/21 07:18:38;;;;;;;0.80;0.45;;;7.40;99.90;;;;;;5082178;28;20065;-72
2023/12/21 07:21:05;;;;;;;0.45;0.45;;;7.40;99.90;;;;;;5071316;28;20115;-73
2023/12/21 07:23:31;;;;;;;0.10;0.10;;;7.40;99.90;;;;;;5074443;28;20043;-73
2023/12/21 07:25:57;;;;;;;0.15;0.15;;;7.40;99.90;;;;;;5074037;28;20402;-73
2023/12/21 07:28:28;;;;;;;0.10;0.10;;;7.40;99.90;;;;;;5074797;28;20028;-74
2023/12/21 07:30:54;;;;;;;0.10;0.10;;;7.40;99.90;;;;;;5076683;28;20043;-73
2023/12/21 07:33:21;;;;;;;0.10;0.10;;;7.40;99.90;;;;;;5072017;28;20485;-73
2023/12/21 07:35:47;;;;;;;0.10;0.10;;;7.40;99.90;;;;;;5070654;28;20033;-74
2023/12/21 07:38:13;;;;;;;0.10;0.10;;;7.40;99.90;;;;;;5076421;28;20025;-74
2023/12/21 07:40:39;;;;;;;0.10;0.10;;;7.30;99.90;;;;;;5071155;28;20032;-73
2023/12/21 07:43:05;;;;;;;0.10;0.10;;;7.40;99.90;;;;;;5070276;28;20024;-73
2023/12/21 07:45:31;;;;;;;0.10;0.10;;;7.30;99.90;;;;;;5073032;28;20519;-73
2023/12/21 07:47:58;;;;;;;0.10;0.10;;;7.30;99.90;;;;;;5076322;28;20040;-73
2023/12/21 07:50:24;;;;;;;0.52;0.43;;;7.30;99.90;;;;;;5084086;28;20028;-73
2023/12/21 07:52:51;;;;;;;1.25;1.15;;;7.30;99.90;;;;;;5072542;28;20030;-73
2023/12/21 07:55:17;;;;;;;0.93;0.90;;;7.40;99.90;;;;;;5073954;28;20036;-72
2023/12/21 07:57:43;;;;;;;0.15;0.15;;;7.40;99.90;;;;;;5073918;28;20043;-73
2023/12/21 08:00:11;;;;;;;0.35;0.35;;;7.40;99.90;;;;;;5076457;28;20029;-72
2023/12/21 08:02:44;;;;;;;0.20;0.20;;;7.40;99.90;;;;;;5071810;28;20059;-72
2023/12/21 08:05:12;;;;;;;0.10;0.10;;;7.40;99.90;;;;;;5071371;28;20469;-72
2023/12/21 08:07:38;;;;;;;0.10;0.10;;;7.40;99.90;;;;;;5052023;28;20048;-72
2023/12/21 08:10:07;;;;;;;0.10;0.10;;;7.40;99.90;;;;;;5073437;28;20100;-72
2023/12/21 08:12:35;;;;;;;0.17;0.17;;;7.40;99.90;;;;;;5070807;28;20036;-71
2023/12/21 08:15:02;;;;;;;0.10;0.10;;;7.40;99.90;;;;;;5070287;28;20037;-71
2023/12/21 08:17:29;;;;;;;0.05;0.05;;;7.40;99.90;;;;;;5071530;28;20035;-73
2023/12/21 08:19:56;;;;;;;0.10;0.10;;;7.40;99.90;;;;;;5075408;28;20028;-71
2023/12/21 08:22:22;;;;;;;0.20;0.20;;;7.40;99.90;;;;;;5081765;28;20469;-72
2023/12/21 08:24:51;;;;;;;0.30;0.30;;;7.40;99.90;;;;;;5065592;28;20044;-74
2023/12/21 08:27:19;;;;;;;0.30;0.30;;;7.50;99.90;;;;;;5068460;28;20040;-73
2023/12/21 08:29:45;;;;;;;0.10;0.10;;;7.40;99.90;;;;;;5075115;28;20047;-71
2023/12/21 08:32:11;;;;;;;1.30;1.05;;;7.50;99.90;;;;;;5076873;28;20029;-72
2023/12/21 08:34:37;;;;;;;0.88;0.88;;;7.50;99.90;;;;;;5076337;28;20028;-72
2023/12/21 08:37:03;;;;;;;0.10;0.10;;;7.50;99.90;;;;;;5069973;28;20051;-71
2023/12/21 08:39:30;;;;;;;0.10;0.10;;;7.60;99.90;;;;;;5070582;28;20036;-72
2023/12/21 08:41:56;;;;;;;0.43;0.43;;;7.60;99.90;;;;;;5072692;28;20028;-71
2023/12/21 08:44:22;;;;;;;0.10;0.10;;;7.60;99.90;;;;;;5058915;28;20036;-71
2023/12/21 08:46:48;;;;;;;2.17;1.08;;;7.60;99.90;;;;;;5071131;28;20040;-73
2023/12/21 08:49:15;;;;;;;0.82;0.30;;;7.60;99.90;;;;;;5069441;28;20032;-71
2023/12/21 08:51:41;;;;;;;0.10;0.10;;;7.60;99.90;;;;;;5072704;28;20036;-71
2023/12/21 08:54:07;;;;;;;0.10;0.10;;;7.60;99.90;;;;;;5078847;28;20639;-70
2023/12/21 08:56:34;;;;;;;0.10;0.10;;;7.60;99.90;;;;;;5076616;28;20032;-71
2023/12/21 08:59:01;;;;;;;0.10;0.10;;;7.70;99.90;;;;;;5069156;28;20040;-71
2023/12/21 09:01:30;;;;;;;0.10;0.10;;;7.70;99.90;;;;;;5071159;28;20063;-72
2023/12/21 09:03:58;;;;;;;0.10;0.10;;;7.70;99.90;;;;;;5078153;28;20040;-71
2023/12/21 09:06:25;;;;;;;0.10;0.10;;;7.70;99.90;;;;;;5058792;28;20047;-71
2023/12/21 09:08:51;;;;;;;0.25;0.25;;;7.70;99.90;;;;;;5068649;28;20032;-73
2023/12/21 09:11:17;;;;;;;0.85;0.85;;;7.70;99.90;;;;;;5067359;28;20047;-72
2023/12/21 09:13:44;;;;;;;0.10;0.10;;;7.70;99.90;;;;;;5074915;28;20036;-72
2023/12/21 09:16:10;;;;;;;0.20;0.20;;;7.80;99.90;;;;;;5077633;28;20032;-72
2023/12/21 09:18:36;;;;;;;0.10;0.10;;;7.80;99.90;;;;;;5068757;28;20096;-72
2023/12/21 09:21:03;;;;;;;0.52;0.52;;;7.90;99.90;;;;;;5070861;28;20482;-73
2023/12/21 09:23:30;;;;;;;0.10;0.10;;;7.90;99.90;;;;;;5071712;28;20048;-73
2023/12/21 09:25:56;;;;;;;0.13;0.10;;;8.00;99.90;;;;;;5075062;28;20051;-74
2023/12/21 09:28:22;;;;;;;1.13;1.05;;;8.10;99.90;;;;;;5071934;28;20036;-74
2023/12/21 09:30:48;;;;;;;0.10;0.10;;;8.20;99.90;;;;;;5071112;28;20036;-73
2023/12/21 09:33:14;;;;;;;0.20;0.20;;;8.20;99.90;;;;;;5069814;28;20040;-73
2023/12/21 09:35:41;;;;;;;0.10;0.10;;;8.30;99.90;;;;;;5078416;28;20036;-73
2023/12/21 09:38:08;;;;;;;0.22;0.22;;;8.30;99.90;;;;;;5074184;28;20036;-72
2023/12/21 09:40:34;;;;;;;0.40;0.40;;;8.30;99.90;;;;;;5070078;28;20029;-72
2023/12/21 09:43:05;;;;;;;0.10;0.10;;;8.30;99.90;;;;;;5070936;28;20028;-73
2023/12/21 09:45:32;;;;;;;0.10;0.10;;;8.30;99.90;;;;;;5078595;28;20043;-73
2023/12/21 09:47:59;;;;;;;0.10;0.10;;;8.40;96.30;;;;;;5076921;28;20082;-71
2023/12/21 09:50:28;;;;;;;0.10;0.10;;;8.40;92.60;;;;;;5078324;28;20025;-71
2023/12/21 09:52:54;;;;;;;0.10;0.10;;;8.40;94.00;;;;;;5073436;28;20043;-73
2023/12/21 09:55:22;;;;;;;0.10;0.10;;;8.40;94.80;;;;;;5072355;28;20032;-72
2023/12/21 09:57:49;;;;;;;0.40;0.40;;;8.50;75.80;;;;;;5078898;28;20036;-71
2023/12/21 10:00:15;;;;;;;0.20;0.20;;;8.50;56.10;;;;;;5078428;28;20028;-71
2023/12/21 10:02:42;;;;;;;0.10;0.10;;;8.50;48.40;;;;;;5069491;28;20041;-72
2023/12/21 10:05:08;;;;;;;0.20;0.20;;;8.60;44.00;;;;;;5067088;28;20037;-72
2023/12/21 10:07:34;;;;;;;0.10;0.10;;;8.60;29.30;;;;;;5076584;28;20035;-70
2023/12/21 10:10:00;;;;;;;0.30;0.30;;;8.60;20.50;;;;;;5079729;28;20032;-72
2023/12/21 10:12:26;;;;;;;0.10;0.10;;;8.70;1.00;;;;;;5073377;28;20039;-72
2023/12/21 10:14:57;;;;;;;0.10;0.10;;;8.70;1.00;;;;;;5072944;28;20457;-74
2023/12/21 10:17:23;;;;;;;0.10;0.10;;;8.80;1.00;;;;;;5074352;28;20036;-72
2023/12/21 10:19:50;;;;;;;0.10;0.10;;;8.70;1.00;;;;;;5063902;28;20029;-72
2023/12/21 10:22:17;;;;;;;0.10;0.10;;;8.80;1.00;;;;;;5075920;28;20533;-72
2023/12/21 10:24:43;;;;;;;0.10;0.10;;;8.80;1.00;;;;;;5069797;28;20041;-74
2023/12/21 10:27:16;;;;;;;2.25;1.52;;;8.80;1.00;;;;;;5073526;28;20036;-74
2023/12/21 10:29:54;;;;;;;0.35;0.35;;;8.80;1.00;;;;;;5077866;28;20118;-72
2023/12/21 10:32:20;;;;;;;0.10;0.10;;;8.80;1.00;;;;;;5083303;28;20040;-75
2023/12/21 10:34:47;;;;;;;0.45;0.30;;;8.90;1.00;;;;;;5072073;28;20059;-73
2023/12/21 10:37:17;;;;;;;0.10;0.10;;;8.90;1.00;;;;;;5072340;28;20043;-73
2023/12/21 10:39:44;;;;;;;0.10;0.10;;;8.90;1.00;;;;;;5077165;28;20028;-73
2023/12/21 10:42:13;;;;;;;0.10;0.10;;;9.00;1.00;;;;;;5079494;28;20028;-73
2023/12/21 10:44:44;;;;;;;0.10;0.10;;;9.00;1.00;;;;;;5070789;28;20040;-73
2023/12/21 10:47:11;;;;;;;3.28;0.22;;;9.00;1.00;;;;;;5071694;28;20048;-73
2023/12/21 10:49:40;;;;;;;0.17;0.17;;;9.10;1.00;;;;;;5073651;28;20373;-73
2023/12/21 10:52:07;;;;;;;0.32;0.32;;;9.00;1.00;;;;;;5075321;28;20024;-73
2023/12/21 10:54:34;;;;;;;0.63;0.50;;;9.00;1.00;;;;;;5076578;28;20052;-73
2023/12/21 10:57:00;;;;;;;0.17;0.17;;;9.00;1.00;;;;;;5071113;28;20024;-74
2023/12/21 10:59:28;;;;;;;0.95;0.63;;;9.00;1.00;;;;;;5074730;28;20029;-74
2023/12/21 11:01:54;;;;;;;0.15;0.15;;;8.90;1.00;;;;;;5077614;28;20438;-74
2023/12/21 11:04:23;;;;;;;0.10;0.10;;;9.00;1.00;;;;;;5082254;28;20055;-73
2023/12/21 11:06:50;;;;;;;0.10;0.10;;;9.00;1.00;;;;;;5071745;28;20039;-73
2023/12/21 11:09:19;;;;;;;0.10;0.10;;;8.90;1.00;;;;;;5076419;28;20039;-74
2023/12/21 11:11:46;;;;;;;0.25;0.25;;;8.90;1.00;;;;;;5076429;28;20036;-73
2023/12/21 11:14:13;;;;;;;0.40;0.40;;;8.90;1.00;;;;;;5086192;28;20094;-76
2023/12/21 11:16:45;;;;;;;0.10;0.10;;;8.90;1.00;;;;;;5073210;28;20453;-78
2023/12/21 11:19:14;;;;;;;0.10;0.10;;;8.90;1.00;;;;;;5074590;28;20334;-77
2023/12/21 11:21:41;;;;;;;0.68;0.47;;;8.90;1.00;;;;;;5075548;28;20052;-76
2023/12/21 11:24:07;;;;;;;0.10;0.10;;;8.90;1.00;;;;;;5078439;28;20051;-76
2023/12/21 11:26:36;;;;;;;0.90;0.40;;;8.90;1.00;;;;;;5056985;28;20037;-76
2023/12/21 11:29:06;;;;;;;0.77;0.77;;;8.80;1.00;;;;;;5070154;28;20389;-75
2023/12/21 11:31:39;;;;;;;0.35;0.35;;;8.80;1.00;;;;;;5072873;28;20338;-74
2023/12/21 11:34:14;;;;;;;0.10;0.10;;;8.80;1.00;;;;;;5071725;28;20036;-74
2023/12/21 11:36:41;;;;;;;0.68;0.43;;;8.80;1.00;;;;;;5081437;28;20032;-74
2023/12/21 11:39:21;;;;;;;0.10;0.10;;;8.80;1.00;;;;;;5069470;28;20028;-74
2023/12/21 11:41:58;;;;;;;0.10;0.10;;;8.80;10.70;;;;;;5073136;28;20462;-74
2023/12/21 11:44:35;;;;;;;0.10;0.10;;;8.80;31.00;;;;;;5078232;28;20032;-74
2023/12/21 11:47:01;;;;;;;0.15;0.15;;;8.70;59.20;;;;;;5079610;28;20381;-76
2023/12/21 11:49:29;;;;;;;0.30;0.30;;;8.70;77.60;;;;;;5074426;28;20492;-74
2023/12/21 11:51:56;;;;;;;0.10;0.10;;;8.70;86.40;;;;;;5078278;28;20024;-74
2023/12/21 11:54:24;;;;;;;0.22;0.22;;;8.70;93.70;;;;;;5076710;28;20047;-79
2023/12/21 11:56:52;;;;;;;0.13;0.13;;;8.70;99.90;;;;;;5084408;28;20020;-75
2023/12/21 11:59:22;;;;;;;0.10;0.10;;;8.70;99.90;;;;;;5077182;28;20481;-76
2023/12/21 12:01:49;;;;;;;0.28;0.28;;;8.70;99.90;;;;;;5051141;28;20040;-76
2023/12/21 12:04:16;;;;;;;0.17;0.17;;;8.80;99.90;;;;;;5075014;28;20043;-74
2023/12/21 12:06:51;;;;;;;0.10;0.10;;;8.80;94.60;;;;;;5054005;28;20029;-77
2023/12/21 12:09:19;;;;;;;0.30;0.30;;;8.80;82.00;;;;;;5070260;28;20116;-74
2023/12/21 12:11:45;;;;;;;0.20;0.20;;;8.90;74.60;;;;;;5071767;28;20043;-75
2023/12/21 12:14:12;;;;;;;0.10;0.10;;;8.90;83.30;;;;;;5070928;28;20030;-74
2023/12/21 12:16:38;;;;;;;0.10;0.10;;;8.90;90.00;;;;;;5073442;28;20035;-73
2023/12/21 12:19:04;;;;;;;1.08;0.93;;;8.90;94.00;;;;;;5074824;28;20458;-73
2023/12/21 12:21:31;;;;;;;2.38;1.00;;;8.80;94.20;;;;;;5071588;28;20492;-74
2023/12/21 12:23:57;;;;;;;0.57;0.57;;;8.90;99.50;;;;;;5072374;28;20044;-73
2023/12/21 12:26:23;;;;;;;0.20;0.20;;;8.80;99.90;;;;;;5074427;28;20039;-73
2023/12/21 12:28:51;;;;;;;2.10;2.00;;;8.80;99.90;;;;;;5081441;28;20412;-75
2023/12/21 12:31:18;;;;;;;0.43;0.43;;;8.80;99.90;;;;;;5076194;28;20032;-73
2023/12/21 12:33:47;;;;;;;0.13;0.13;;;8.80;99.90;;;;;;5075881;28;20116;-73
2023/12/21 12:36:16;;;;;;;0.30;0.30;;;8.80;99.90;;;;;;5071780;28;20040;-72
2023/12/21 12:38:45;;;;;;;0.30;0.20;;;8.90;99.90;;;;;;5075474;28;20037;-73
2023/12/21 12:41:23;;;;;;;0.10;0.10;;;8.90;99.90;;;;;;5051064;28;20025;-73
2023/12/21 12:43:49;;;;;;;0.15;0.15;;;8.90;95.80;;;;;;5070338;28;20036;-74
2023/12/21 12:46:16;;;;;;;0.13;0.13;;;8.90;93.10;;;;;;5070173;28;20028;-74
2023/12/21 12:48:43;;;;;;;0.17;0.17;;;9.00;90.40;;;;;;5077607;28;20516;-73
2023/12/21 12:51:12;;;;;;;0.20;0.20;;;9.00;75.50;;;;;;5052127;28;20040;-74
2023/12/21 12:53:42;;;;;;;0.10;0.10;;;9.10;56.20;;;;;;5059749;28;20040;-73
2023/12/21 12:56:08;;;;;;;0.10;0.10;;;9.10;35.20;;;;;;5070788;28;20031;-73